Latest Weather Observations for Lihou Reef Lighthouse

IDQ60801

Issued at 3:05 pm EST Saturday 29 November 2014 (issued every 30 minutes, with the page automatically refreshed every 10 minutes)

About weather observations | Map of weather stations | Latest weather observations for QLD | Other Formats
Station Details ID: 200880 Name: LIHOU REEF LIGHTHOUSE Lat: -17.13 Lon: 152.15 Height: 0.0 m
Data from the previous 72 hours. | See also: Recent months for locations in Queensland
Date/Time
EST
Temp
°C
App
Temp
°C
Dew
Point
Rel
Hum
%
Delta-T
°C
Wind Press
QNH
hPa
Press
MSL
hPa
Rain
since 9 am
mm
Dir
 
Spd
km/h
Gust
km/h
Spd
kts
Gust
kts
29/03:00pm 26.9 - - - - ESE 28 35 15 19 1008.9 1008.8 -
29/02:30pm 27.0 - - - - ESE 28 33 15 18 1009.0 1008.9 -
29/02:00pm 27.0 - - - - ESE 28 32 15 17 1009.1 1009.0 -
29/01:30pm 26.7 - - - - ESE 30 37 16 20 1009.2 1009.1 -
29/01:00pm 26.7 - - - - ESE 30 33 16 18 1009.4 1009.3 -
29/12:30pm 26.3 - - - - ESE 30 33 16 18 1009.8 1009.7 -
29/12:00pm 25.8 - - - - SE 35 43 19 23 1010.1 1010.0 -
29/11:30am 25.3 - - - - SE 35 41 19 22 1010.4 1010.3 -
29/11:00am 26.7 - - - - ESE 28 33 15 18 1010.6 1010.5 -
29/10:30am 26.7 - - - - ESE 28 33 15 18 1010.9 1010.8 -
29/10:00am 26.5 - - - - ESE 32 37 17 20 1010.8 1010.7 -
29/09:30am 26.0 - - - - ESE 33 39 18 21 1011.0 1010.9 -
29/09:00am 26.3 - - - - ESE 28 39 15 21 1011.1 1011.0 -
29/08:30am 25.8 - - - - ESE 22 26 12 14 1011.2 1011.1 -
29/08:00am 24.5 - - - - SE 28 35 15 19 1011.0 1010.9 -
29/07:30am 23.8 - - - - SE 35 41 19 22 1010.7 1010.6 -
29/07:00am 24.0 - - - - SE 39 46 21 25 1010.3 1010.2 -
29/06:30am 24.5 - - - - ESE 35 44 19 24 1010.2 1010.1 -
29/06:00am 25.1 - - - - SE 32 35 17 19 1010.0 1009.9 -
29/05:30am 25.2 - - - - SE 32 37 17 20 1009.6 1009.5 -
29/05:00am 24.9 - - - - SE 24 28 13 15 1009.3 1009.2 -
29/04:30am 25.8 - - - - ESE 28 32 15 17 1009.0 1008.9 -
29/04:00am 25.8 - - - - E 28 35 15 19 1009.0 1008.9 -
29/03:30am 25.4 - - - - ESE 26 32 14 17 1009.2 1009.1 -
29/03:00am 25.2 - - - - E 26 32 14 17 1008.8 1008.7 -
29/02:30am 25.5 - - - - E 30 35 16 19 1008.6 1008.5 -
29/02:00am 25.4 - - - - ESE 28 33 15 18 1008.8 1008.7 -
29/01:30am 25.3 - - - - ESE 33 41 18 22 1009.0 1008.9 -
29/01:00am 25.3 - - - - ESE 33 39 18 21 1009.3 1009.2 -
29/12:30am 25.5 - - - - E 30 33 16 18 1010.0 1009.9 -
29/12:00am 25.3 - - - - ESE 30 37 16 20 1010.2 1010.1 -
 
Date/Time
EST
Temp
°C
App
Temp
°C
Dew
Point
Rel
Hum
%
Delta-T
°C
Wind Press
QNH
hPa
Press
MSL
hPa
Rain
since 9 am
mm
Dir
 
Spd
km/h
Gust
km/h
Spd
kts
Gust
kts
28/11:30pm 25.5 - - - - ESE 32 35 17 19 1010.6 1010.5 -
28/11:00pm 25.8 - - - - ESE 30 35 16 19 1011.0 1010.9 -
28/10:30pm 25.9 - - - - ESE 32 37 17 20 1011.0 1010.9 -
28/10:00pm 25.9 - - - - ESE 32 37 17 20 1011.2 1011.1 -
28/09:30pm 25.9 - - - - ESE 30 33 16 18 1011.1 1011.0 -
28/09:00pm 26.2 - - - - ESE 26 35 14 19 1011.1 1011.0 -
28/08:30pm 26.0 - - - - ESE 30 35 16 19 1010.7 1010.6 -
28/08:00pm 26.1 - - - - ESE 33 39 18 21 1010.6 1010.5 -
28/07:30pm 26.3 - - - - SE 33 39 18 21 1010.7 1010.6 -
28/07:00pm 26.3 - - - - ESE 32 37 17 20 1010.4 1010.3 -
28/06:30pm 26.5 - - - - SE 30 35 16 19 1010.3 1010.2 -
28/06:00pm 26.5 - - - - SE 30 37 16 20 1010.0 1009.9 -
28/05:30pm 26.6 - - - - SE 24 30 13 16 1010.0 1009.9 -
28/05:00pm 26.6 - - - - SE 24 28 13 15 1009.9 1009.8 -
28/04:30pm 26.5 - - - - SE 22 28 12 15 1009.8 1009.7 -
28/04:00pm 26.3 - - - - SE 24 30 13 16 1009.6 1009.5 -
28/03:30pm 25.9 - - - - ESE 28 32 15 17 1009.5 1009.4 -
28/03:00pm 26.1 - - - - SE 32 37 17 20 1009.4 1009.3 -
28/02:30pm 26.4 - - - - SE 28 32 15 17 1009.5 1009.4 -
28/02:00pm 26.6 - - - - SE 24 28 13 15 1009.7 1009.6 -
28/01:30pm 26.7 - - - - ESE 22 24 12 13 1009.9 1009.8 -
28/01:00pm 26.7 - - - - SE 22 28 12 15 1010.1 1010.0 -
28/12:30pm 26.6 - - - - ESE 20 26 11 14 1010.4 1010.3 -
28/12:00pm 26.5 - - - - SE 22 26 12 14 1010.5 1010.4 -
28/11:30am 26.6 - - - - ESE 22 26 12 14 1010.7 1010.6 -
28/11:00am 26.7 - - - - ESE 20 24 11 13 1010.9 1010.8 -
28/10:30am 26.7 - - - - ESE 19 24 10 13 1011.1 1011.0 -
28/10:00am 26.7 - - - - ESE 20 24 11 13 1011.2 1011.1 -
28/09:30am 26.7 - - - - ESE 20 24 11 13 1011.3 1011.2 -
28/09:00am 26.6 - - - - ESE 20 24 11 13 1011.4 1011.3 -
28/08:30am 26.4 - - - - ESE 24 28 13 15 1011.4 1011.3 -
28/08:00am 26.5 - - - - ESE 28 32 15 17 1011.2 1011.1 -
28/07:30am 26.4 - - - - ESE 26 32 14 17 1011.0 1010.9 -
28/07:00am 26.2 - - - - ESE 26 33 14 18 1011.0 1010.9 -
28/06:30am 26.2 - - - - SE 24 30 13 16 1010.8 1010.7 -
28/06:00am 26.2 - - - - ESE 24 30 13 16 1010.8 1010.7 -
28/05:30am 25.9 - - - - ESE 28 32 15 17 1010.5 1010.4 -
28/05:00am 25.8 - - - - ESE 28 33 15 18 1010.2 1010.1 -
28/04:30am 25.8 - - - - ESE 26 30 14 16 1009.9 1009.8 -
28/04:00am 25.9 - - - - SE 28 33 15 18 1009.8 1009.7 -
28/03:30am 26.0 - - - - ESE 28 33 15 18 1009.8 1009.7 -
28/03:00am 26.0 - - - - SE 30 35 16 19 1009.7 1009.6 -
28/02:30am 26.0 - - - - SE 30 37 16 20 1009.7 1009.6 -
28/02:00am 26.0 - - - - SE 30 37 16 20 1009.9 1009.8 -
28/01:30am 26.1 - - - - ESE 33 39 18 21 1010.1 1010.0 -
28/01:00am 26.2 - - - - SE 33 39 18 21 1010.4 1010.3 -
28/12:30am 26.3 - - - - SE 35 43 19 23 1010.6 1010.5 -
28/12:00am 26.3 - - - - ESE 33 41 18 22 1011.0 1010.9 -
 
Date/Time
EST
Temp
°C
App
Temp
°C
Dew
Point
Rel
Hum
%
Delta-T
°C
Wind Press
QNH
hPa
Press
MSL
hPa
Rain
since 9 am
mm
Dir
 
Spd
km/h
Gust
km/h
Spd
kts
Gust
kts
27/11:30pm 26.3 - - - - ESE 33 39 18 21 1011.1 1011.0 -
27/11:00pm 26.4 - - - - ESE 32 35 17 19 1011.4 1011.3 -
27/10:30pm 26.3 - - - - ESE 32 37 17 20 1011.4 1011.3 -
27/10:00pm 26.4 - - - - ESE 33 41 18 22 1011.5 1011.4 -
27/09:30pm 26.4 - - - - ESE 32 37 17 20 1011.6 1011.5 -
27/09:00pm 26.6 - - - - ESE 30 35 16 19 1011.5 1011.4 -
27/08:30pm 26.6 - - - - ESE 30 33 16 18 1011.1 1011.0 -
27/08:00pm 26.6 - - - - ESE 28 32 15 17 1011.0 1010.9 -
27/07:30pm 26.6 - - - - ESE 26 30 14 16 1010.9 1010.8 -
27/07:00pm 26.5 - - - - ESE 26 32 14 17 1010.8 1010.7 -
27/06:30pm 26.7 - - - - ESE 24 30 13 16 1010.5 1010.4 -
27/06:00pm 26.6 - - - - ESE 22 26 12 14 1010.4 1010.3 -
27/05:30pm 26.8 - - - - ESE 24 28 13 15 1010.2 1010.1 -
27/05:00pm 27.3 - - - - ESE 24 32 13 17 1010.0 1009.9 -
27/04:30pm 27.4 - - - - ESE 24 30 13 16 1009.6 1009.5 -
27/04:00pm 26.9 - - - - ESE 24 28 13 15 1009.6 1009.5 -
27/03:30pm 26.8 - - - - ESE 28 33 15 18 1009.3 1009.2 -
27/03:00pm 26.8 - - - - ESE 30 35 16 19 1009.2 1009.1 -
27/02:30pm 26.6 - - - - ESE 30 33 16 18 1009.4 1009.3 -
27/02:00pm 26.9 - - - - ESE 28 33 15 18 1009.6 1009.5 -
27/01:30pm 26.9 - - - - ESE 30 35 16 19 1009.7 1009.6 -
27/01:00pm 26.6 - - - - ESE 32 37 17 20 1010.0 1009.9 -
27/12:30pm 26.2 - - - - SE 26 32 14 17 1010.3 1010.2 -
27/12:00pm 26.3 - - - - SE 30 35 16 19 1010.5 1010.4 -
27/11:30am 26.4 - - - - ESE 28 33 15 18 1010.8 1010.7 -
27/11:00am 26.1 - - - - ESE 39 48 21 26 1011.2 1011.1 -
27/10:30am 26.1 - - - - SE 32 39 17 21 1011.6 1011.5 -
27/10:00am 26.3 - - - - SE 28 32 15 17 1011.8 1011.7 -
27/09:30am 26.6 - - - - ESE 28 35 15 19 1011.8 1011.7 -
27/09:00am 27.0 - - - - ESE 26 32 14 17 1012.1 1012.0 -
27/08:30am 26.8 - - - - ESE 28 32 15 17 1011.9 1011.8 -
27/08:00am 27.0 - - - - ESE 24 28 13 15 1012.1 1012.0 -
27/07:30am 26.8 - - - - ESE 24 26 13 14 1011.9 1011.8 -
27/07:00am 26.7 - - - - ESE 24 28 13 15 1011.8 1011.7 -
27/06:30am 26.8 - - - - ESE 26 32 14 17 1011.6 1011.5 -
27/06:00am 26.4 - - - - ESE 28 32 15 17 1011.3 1011.2 -
27/05:30am 26.3 - - - - ESE 28 32 15 17 1011.0 1010.9 -
27/05:00am 26.2 - - - - ESE 28 37 15 20 1010.7 1010.6 -
27/04:30am 26.3 - - - - ESE 28 33 15 18 1010.3 1010.2 -
27/04:00am 26.3 - - - - ESE 30 35 16 19 1010.0 1009.9 -
27/03:30am 26.3 - - - - ESE 30 37 16 20 1009.9 1009.8 -
27/03:00am 26.2 - - - - ESE 30 37 16 20 1010.0 1009.9 -
27/02:30am 26.3 - - - - ESE 30 35 16 19 1010.2 1010.1 -
27/02:00am 26.2 - - - - ESE 30 33 16 18 1010.1 1010.0 -
27/01:30am 26.0 - - - - ESE 32 39 17 21 1010.4 1010.3 -
27/01:00am 26.2 - - - - ESE 33 43 18 23 1010.7 1010.6 -
27/12:30am 26.4 - - - - ESE 30 33 16 18 1011.0 1010.9 -
27/12:00am 26.3 - - - - ESE 30 33 16 18 1011.4 1011.3 -
 
Date/Time
EST
Temp
°C
App
Temp
°C
Dew
Point
Rel
Hum
%
Delta-T
°C
Wind Press
QNH
hPa
Press
MSL
hPa
Rain
since 9 am
mm
Dir
 
Spd
km/h
Gust
km/h
Spd
kts
Gust
kts
26/11:30pm 26.5 - - - - ESE 32 35 17 19 1011.6 1011.5 -
26/11:00pm 26.4 - - - - ESE 28 35 15 19 1012.0 1011.9 -
26/10:30pm 26.3 - - - - ESE 32 35 17 19 1012.1 1012.0 -
26/10:00pm 26.3 - - - - ESE 33 41 18 22 1012.1 1012.0 -
26/09:30pm 26.7 - - - - ESE 26 32 14 17 1012.4 1012.3 -
26/09:00pm 26.5 - - - - ESE 30 35 16 19 1012.3 1012.2 -
26/08:30pm 26.4 - - - - ESE 26 30 14 16 1012.2 1012.1 -
26/08:00pm 26.7 - - - - ESE 26 32 14 17 1012.1 1012.0 -
26/07:30pm 26.6 - - - - ESE 26 32 14 17 1012.0 1011.9 -
26/07:00pm 26.7 - - - - ESE 26 33 14 18 1011.7 1011.6 -
26/06:30pm 26.7 - - - - ESE 28 32 15 17 1011.3 1011.2 -
26/06:00pm 26.7 - - - - ESE 30 33 16 18 1010.8 1010.7 -
26/05:30pm 26.9 - - - - ESE 30 37 16 20 1010.5 1010.4 -
26/05:00pm 27.2 - - - - ESE 28 33 15 18 1010.2 1010.1 -
26/04:30pm 27.2 - - - - ESE 30 35 16 19 1009.9 1009.8 -
26/04:00pm 27.3 - - - - ESE 28 33 15 18 1009.9 1009.8 -
26/03:30pm 27.2 - - - - ESE 28 33 15 18 1009.9 1009.8 -

Other Formats:

Comma delimited format used in spreadsheet applications
http://www.bom.gov.au/fwo/IDQ60801/IDQ60801.94293.axf

JavaScript Object Notation format (JSON) in row-major order
http://www.bom.gov.au/fwo/IDQ60801/IDQ60801.94293.json